Time;durP1;ratioP1;P1;durP2;ratioP2;P2;SDS_P1;SDS_P2;PMS_P1;PMS_P2;Temp;Humidity;BMP_temperature;BMP_pressure;BME280_temperature;BME280_humidity;BME280_pressure;Samples;Min_cycle;Max_cycle;Signal;HPM_P1;HPM_P2
2022/03/07 00:01:50;;;;;;;23.20;11.90;;;;;;;-2.05;100.00;102799.44;10207892;29;20044;-87
2022/03/07 00:06:51;;;;;;;22.30;10.63;;;;;;;-2.37;100.00;102762.41;10192196;29;20054;-88
2022/03/07 00:11:51;;;;;;;23.10;10.98;;;;;;;-2.73;100.00;102706.88;10207839;29;20023;-88
2022/03/07 00:16:52;;;;;;;18.83;10.43;;;;;;;-2.22;100.00;102786.44;10191580;29;20031;-88
2022/03/07 00:21:52;;;;;;;21.52;10.80;;;;;;;-2.47;100.00;102761.44;10206544;29;20440;-88
2022/03/07 00:26:53;;;;;;;22.17;10.85;;;;;;;-2.49;100.00;102763.41;10191457;29;20293;-88
2022/03/07 00:31:53;;;;;;;20.02;11.52;;;;;;;-3.12;100.00;102674.88;10191133;29;20019;-87
2022/03/07 00:36:54;;;;;;;22.75;11.35;;;;;;;-3.26;100.00;102656.25;10206282;28;20024;-88
2022/03/07 00:41:54;;;;;;;24.10;11.30;;;;;;;-2.93;100.00;102717.41;10190870;29;20090;-88
2022/03/07 00:46:57;;;;;;;23.10;11.77;;;;;;;-2.37;100.00;102810.97;10206008;29;20416;-88
2022/03/07 00:51:58;;;;;;;22.73;11.20;;;;;;;-2.70;100.00;102782.97;10190203;29;20095;-88
2022/03/07 00:56:58;;;;;;;19.83;10.63;;;;;;;-2.73;100.00;102775.16;10189123;29;20122;-88
2022/03/07 01:01:59;;;;;;;23.92;12.30;;;;;;;-2.65;100.00;102780.81;10221379;29;20126;-88
2022/03/07 01:06:59;;;;;;;27.40;12.32;;;;;;;-2.29;100.00;102857.09;10221110;29;20506;-88
2022/03/07 01:12:00;;;;;;;29.52;12.45;;;;;;;-2.92;100.00;102746.06;10189751;29;20061;-88
2022/03/07 01:17:00;;;;;;;23.70;12.35;;;;;;;-2.70;100.00;102804.56;10189087;29;20029;-88
2022/03/07 01:22:01;;;;;;;23.30;12.38;;;;;;;-2.89;100.00;102777.31;10204862;29;20057;-88
2022/03/07 01:27:03;;;;;;;23.35;12.32;;;;;;;-3.31;100.00;102690.75;10205218;29;20494;-88
2022/03/07 01:32:04;;;;;;;31.92;13.32;;;;;;;-3.40;100.00;102675.31;10220131;29;20417;-88
2022/03/07 01:37:04;;;;;;;29.48;13.07;;;;;;;-3.21;100.00;102737.53;10220135;29;20046;-88
2022/03/07 01:42:05;;;;;;;29.38;13.35;;;;;;;-2.84;100.00;102786.75;10188330;29;20051;-88
2022/03/07 01:47:06;;;;;;;27.80;13.85;;;;;;;-3.83;100.00;102624.75;10203672;28;20483;-89
2022/03/07 01:52:06;;;;;;;23.20;12.88;;;;;;;-3.77;100.00;102656.56;10188145;29;20124;-88
2022/03/07 01:57:07;;;;;;;26.90;12.77;;;;;;;-2.97;100.00;102777.06;10188086;29;20435;-88
2022/03/07 02:02:08;;;;;;;23.13;13.20;;;;;;;-3.33;100.00;102727.69;10188853;29;20110;-88
2022/03/07 02:07:09;;;;;;;25.35;13.07;;;;;;;-3.01;100.00;102797.13;10204485;29;21145;-89
2022/03/07 02:12:09;;;;;;;28.60;13.45;;;;;;;-3.88;100.00;102649.31;10187808;29;20027;-89
2022/03/07 02:17:10;;;;;;;26.08;12.88;;;;;;;-3.06;100.00;102787.56;10188591;29;20027;-88
2022/03/07 02:22:10;;;;;;;29.92;13.32;;;;;;;-3.49;100.00;102741.50;10204203;29;20035;-89
2022/03/07 02:27:11;;;;;;;24.95;12.93;;;;;;;-3.63;100.00;102718.31;10201128;28;20023;-88
2022/03/07 02:32:12;;;;;;;24.98;11.95;;;;;;;-3.72;100.00;102727.06;10226066;28;20038;-88
2022/03/07 02:37:12;;;;;;;30.42;12.40;;;;;;;-3.81;100.00;102684.69;10242949;28;20035;-88
2022/03/07 02:42:13;;;;;;;27.83;12.82;;;;;;;-3.76;100.00;102713.00;10210990;28;20047;-88
2022/03/07 02:47:14;;;;;;;24.45;11.57;;;;;;;-4.49;100.00;102574.06;10203364;29;20031;-88
2022/03/07 02:52:14;;;;;;;20.80;11.50;;;;;;;-4.40;100.00;102612.84;10218369;29;20065;-88
2022/03/07 02:57:15;;;;;;;25.60;12.82;;;;;;;-3.72;100.00;102730.63;10217223;29;20027;-89
2022/03/07 03:02:15;;;;;;;22.25;11.93;;;;;;;-3.59;100.00;102735.94;10208923;29;20027;-89
2022/03/07 03:07:16;;;;;;;28.17;12.90;;;;;;;-3.32;100.00;102776.06;10194612;29;20024;-89
2022/03/07 03:12:18;;;;;;;27.08;13.57;;;;;;;-4.55;100.00;102587.97;10194458;29;20061;-89
2022/03/07 03:17:18;;;;;;;30.70;13.52;;;;;;;-3.99;100.00;102673.47;10210422;29;20082;-88
2022/03/07 03:22:22;;;;;;;27.00;13.40;;;;;;;-4.31;100.00;102625.63;10194313;29;20118;-89
2022/03/07 03:27:22;;;;;;;23.48;12.00;;;;;;;-4.38;100.00;102609.09;10210465;29;20102;-89
2022/03/07 03:32:24;;;;;;;18.75;10.57;;;;;;;-4.05;100.00;102658.66;10225069;29;20195;-88
2022/03/07 03:37:24;;;;;;;16.17;9.30;;;;;;;-3.78;100.00;102720.31;10240690;29;20027;-89
2022/03/07 03:42:25;;;;;;;14.88;8.75;;;;;;;-4.77;100.00;102554.63;10209426;29;20126;-89
2022/03/07 03:47:25;;;;;;;12.63;8.05;;;;;;;-4.15;100.00;102650.41;10224909;29;20038;-89
2022/03/07 03:52:28;;;;;;;14.27;7.82;;;;;;;-3.74;100.00;102712.84;10208744;29;20109;-88
2022/03/07 03:57:28;;;;;;;13.38;8.15;;;;;;;-4.16;100.00;102678.28;10208714;29;20030;-88
2022/03/07 04:02:29;;;;;;;14.60;8.25;;;;;;;-4.17;100.00;102675.72;10208561;29;20532;-88
2022/03/07 04:07:29;;;;;;;16.37;9.40;;;;;;;-4.17;100.00;102702.63;10224199;29;20020;-87
2022/03/07 04:12:30;;;;;;;17.35;9.95;;;;;;;-4.57;100.00;102631.09;10209221;29;20514;-88
2022/03/07 04:17:31;;;;;;;18.38;9.88;;;;;;;-4.19;100.00;102712.63;10192966;29;20053;-89
2022/03/07 04:22:31;;;;;;;16.70;8.87;;;;;;;-4.40;100.00;102680.94;10207226;29;20023;-89
2022/03/07 04:27:32;;;;;;;19.33;10.10;;;;;;;-4.62;100.00;102653.91;10191231;29;20058;-89
2022/03/07 04:32:36;;;;;;;18.02;9.60;;;;;;;-4.80;100.00;102635.44;10207066;29;20441;-89
2022/03/07 04:37:40;;;;;;;28.90;13.15;;;;;;;-4.02;100.00;102741.81;10207810;29;20043;-88
2022/03/07 04:42:41;;;;;;;21.38;11.48;;;;;;;-4.63;100.00;102674.56;10206544;29;20388;-88
2022/03/07 04:47:41;;;;;;;21.52;11.75;;;;;;;-4.06;100.00;102756.47;10206351;29;20046;-88
2022/03/07 04:52:42;;;;;;;26.17;11.80;;;;;;;-4.18;100.00;102727.78;10221872;29;20510;-88
2022/03/07 04:57:43;;;;;;;19.63;10.95;;;;;;;-4.18;100.00;102754.66;10190538;29;20030;-88
2022/03/07 05:02:44;;;;;;;22.47;11.17;;;;;;;-3.74;100.00;102805.25;10204781;29;20487;-89
2022/03/07 05:07:44;;;;;;;25.27;11.25;;;;;;;-4.26;100.00;102750.72;10205205;29;20038;-89
2022/03/07 05:12:45;;;;;;;22.75;11.48;;;;;;;-4.37;100.00;102745.25;10190103;29;20042;-89
2022/03/07 05:17:51;;;;;;;22.37;11.53;;;;;;;-3.91;100.00;102817.22;10190064;29;20031;-89
2022/03/07 05:22:52;;;;;;;20.73;11.95;;;;;;;-4.10;100.00;102769.28;10205170;28;20454;-89
2022/03/07 05:27:52;;;;;;;24.88;11.77;;;;;;;-4.70;100.00;102681.31;10189190;29;20468;-89
2022/03/07 05:32:53;;;;;;;21.02;12.30;;;;;;;-4.49;100.00;102708.50;10203630;29;20027;-89
2022/03/07 05:37:54;;;;;;;25.48;12.93;;;;;;;-4.28;100.00;102744.59;10203949;29;20035;-88
2022/03/07 05:42:55;;;;;;;24.98;12.93;;;;;;;-3.75;100.00;102816.13;10220474;29;20087;-89
2022/03/07 05:47:55;;;;;;;28.63;13.00;;;;;;;-4.55;100.00;102698.19;10205127;29;20546;-90
2022/03/07 05:52:56;;;;;;;27.38;13.15;;;;;;;-3.92;100.00;102787.75;10189340;29;20058;-89
2022/03/07 05:57:59;;;;;;;25.15;13.88;;;;;;;-4.37;100.00;102731.81;10204885;29;20031;-89
2022/03/07 06:03:00;;;;;;;26.25;13.75;;;;;;;-4.32;100.00;102740.41;10204169;29;20115;-90
2022/03/07 06:08:01;;;;;;;29.50;13.75;;;;;;;-4.29;100.00;102745.56;10202263;29;20462;-90
2022/03/07 06:13:01;;;;;;;23.80;13.13;;;;;;;-4.29;100.00;102721.34;10204121;29;20039;-90
2022/03/07 06:18:02;;;;;;;26.27;13.45;;;;;;;-4.59;100.00;102669.78;10221101;29;20023;-89
2022/03/07 06:23:04;;;;;;;28.02;14.38;;;;;;;-4.04;100.00;102767.97;10206334;29;20024;-89
2022/03/07 06:28:05;;;;;;;27.52;15.68;;;;;;;-4.22;100.00;102737.03;10188609;29;20106;-90
2022/03/07 06:33:05;;;;;;;28.57;15.53;;;;;;;-4.26;100.00;102707.69;10203474;28;20101;-88
2022/03/07 06:38:06;;;;;;;31.23;16.85;;;;;;;-3.87;100.00;102743.38;10211388;29;20062;-88
2022/03/07 06:43:06;;;;;;;30.65;15.65;;;;;;;-3.67;100.00;102754.50;10197401;29;20097;-90
2022/03/07 06:48:07;;;;;;;28.88;16.52;;;;;;;-3.66;100.00;102750.81;10211241;29;20051;-89
2022/03/07 06:53:07;;;;;;;32.45;17.38;;;;;;;-3.52;100.00;102752.47;10201542;29;20471;-88
2022/03/07 06:58:08;;;;;;;27.38;16.67;;;;;;;-3.28;100.00;102764.09;10229189;29;20047;-88
2022/03/07 07:03:08;;;;;;;34.60;16.65;;;;;;;-2.95;100.00;102810.13;10172788;29;20171;-88
2022/03/07 07:08:09;;;;;;;29.00;16.13;;;;;;;-2.82;100.00;102807.34;10170974;29;20503;-87
2022/03/07 07:13:14;;;;;;;32.47;17.35;;;;;;;-3.19;100.00;102724.81;10186698;29;20031;-88
2022/03/07 07:18:14;;;;;;;30.25;16.42;;;;;;;-2.99;100.00;102723.28;10182133;29;20031;-88
2022/03/07 07:23:15;;;;;;;25.60;16.48;;;;;;;-2.25;100.00;102836.97;10210068;29;20502;-88
2022/03/07 07:28:15;;;;;;;27.33;15.82;;;;;;;-2.24;100.00;102827.88;10241184;29;20100;-89
2022/03/07 07:33:16;;;;;;;26.05;16.05;;;;;;;-2.96;100.00;102682.59;10193446;29;20110;-89
2022/03/07 07:38:16;;;;;;;29.23;15.93;;;;;;;-2.47;100.00;102761.44;10190057;29;20103;-89
2022/03/07 07:43:17;;;;;;;29.88;17.10;;;;;;;-2.03;100.00;102809.13;10219008;29;20510;-89
2022/03/07 07:48:17;;;;;;;27.90;15.02;;;;;;;-2.25;100.00;102739.00;10187814;29;20051;-88
2022/03/07 07:53:19;;;;;;;23.90;14.27;;;;;;;-1.76;100.00;102758.41;10186276;29;20055;-89
2022/03/07 07:58:19;;;;;;;28.95;16.00;;;;;;;-1.70;100.00;102709.28;10189419;29;20067;-89
2022/03/07 08:03:20;;;;;;;29.02;16.15;;;;;;;-1.39;100.00;102725.59;10207046;28;20110;-89
2022/03/07 08:08:20;;;;;;;32.90;14.68;;;;;;;-1.05;100.00;102765.00;10183885;28;20146;-88
2022/03/07 08:13:21;;;;;;;31.75;16.83;;;;;;;-0.43;100.00;102821.91;10212105;28;20460;-88
2022/03/07 08:18:21;;;;;;;27.65;14.50;;;;;;;-0.72;100.00;102733.31;10245080;28;20058;-88
2022/03/07 08:23:22;;;;;;;24.77;14.32;;;;;;;-0.37;100.00;102779.88;10181201;28;20066;-87
2022/03/07 08:28:24;;;;;;;27.40;13.85;;;;;;;-0.56;100.00;102707.59;10194667;29;20165;-88
2022/03/07 08:33:24;;;;;;;25.38;12.18;;;;;;;0.30;100.00;102811.78;10226132;28;20023;-89
2022/03/07 08:38:25;;;;;;;19.60;10.60;;;;;;;0.60;100.00;102816.25;10215760;28;20016;-89
2022/03/07 08:43:25;;;;;;;15.77;8.20;;;;;;;1.05;100.00;102847.38;10206672;28;20516;-89
2022/03/07 08:48:27;;;;;;;14.02;7.30;;;;;;;0.52;100.00;102721.25;10191251;28;20061;-86
2022/03/07 08:53:28;;;;;;;11.05;6.05;;;;;;;1.41;100.00;102853.94;10235611;28;20034;-87
2022/03/07 08:58:28;;;;;;;16.50;7.93;;;;;;;1.50;100.00;102825.06;10186527;28;20024;-87
2022/03/07 09:03:29;;;;;;;13.55;5.90;;;;;;;1.35;100.00;102772.25;10204579;29;20036;-89
2022/03/07 09:08:29;;;;;;;11.23;6.38;;;;;;;1.28;100.00;102744.84;10181502;29;20179;-89
2022/03/07 09:13:30;;;;;;;12.70;6.28;;;;;;;2.08;100.00;102834.84;10217374;29;20170;-88
2022/03/07 09:18:30;;;;;;;12.82;5.72;;;;;;;2.28;100.00;102823.91;10199851;29;20034;-89
2022/03/07 09:23:37;;;;;;;12.50;4.72;;;;;;;2.13;100.00;102770.06;10199220;29;20035;-89
2022/03/07 09:28:38;;;;;;;11.95;4.70;;;;;;;2.42;100.00;102767.16;10201301;29;20031;-88
2022/03/07 09:33:39;;;;;;;12.30;5.00;;;;;;;2.89;100.00;102798.69;10182749;29;20097;-88
2022/03/07 09:38:39;;;;;;;12.10;4.68;;;;;;;2.94;100.00;102749.28;10206632;29;20484;-87
2022/03/07 09:43:40;;;;;;;5.70;2.17;;;;;;;3.18;100.00;102754.03;10183433;29;20084;-87
2022/03/07 09:48:44;;;;;;;8.70;2.63;;;;;;;3.97;100.00;102818.34;10182511;29;20055;-87
2022/03/07 09:53:44;;;;;;;6.20;2.35;;;;;;;4.36;100.00;102827.88;10208115;29;20054;-87
2022/03/07 09:58:45;;;;;;;4.75;1.98;;;;;;;3.79;100.00;102724.94;10182600;29;20043;-88
2022/03/07 10:03:46;;;;;;;8.38;2.85;;;;;;;4.04;100.00;102732.19;10197801;29;20034;-89
2022/03/07 10:08:53;;;;;;;3.35;2.13;;;;;;;4.49;100.00;102762.81;10235293;28;20039;-88
2022/03/07 10:13:56;;;;;;;4.22;2.13;;;;;;;4.78;100.00;102734.19;10219653;29;20038;-87
2022/03/07 10:18:57;;;;;;;3.42;1.98;;;;;;;5.73;100.00;102824.56;10203330;29;20034;-88
2022/03/07 10:23:58;;;;;;;3.65;2.05;;;;;;;5.96;100.00;102818.38;10203633;29;20039;-89
2022/03/07 10:28:59;;;;;;;5.32;1.85;;;;;;;6.16;100.00;102791.44;10219509;29;20028;-89
2022/03/07 10:34:08;;;;;;;4.75;1.67;;;;;;;5.78;100.00;102737.41;10194968;29;20059;-88
2022/03/07 10:39:10;;;;;;;3.70;2.05;;;;;;;5.53;100.00;102692.94;10164106;29;20050;-88
2022/03/07 10:44:28;;;;;;;6.32;2.97;;;;;;;5.68;100.00;102725.81;10226271;29;20043;-88
2022/03/07 10:49:29;;;;;;;5.70;2.20;;;;;;;6.14;100.00;102736.06;10187721;29;20503;-88
2022/03/07 10:54:29;;;;;;;5.40;2.05;;;;;;;7.39;100.00;102802.41;10187779;29;20022;-88
2022/03/07 10:59:31;;;;;;;8.10;3.50;;;;;;;7.50;100.00;102707.06;10202048;29;20019;-89
2022/03/07 11:04:33;;;;;;;2.83;1.77;;;;;;;8.50;100.00;102750.34;10163234;29;20040;-88
2022/03/07 11:09:33;;;;;;;3.80;1.30;;;;;;;9.17;100.00;102750.97;10171673;29;20052;-88
2022/03/07 11:14:34;;;;;;;4.07;1.52;;;;;;;9.70;97.15;102762.34;10217987;29;20027;-88
2022/03/07 11:19:34;;;;;;;3.47;1.30;;;;;;;9.54;90.34;102714.00;10202924;28;20027;-88
2022/03/07 11:24:37;;;;;;;2.38;1.05;;;;;;;9.39;86.47;102661.91;10209066;29;20102;-88
2022/03/07 11:29:39;;;;;;;4.45;1.42;;;;;;;9.62;85.80;102671.75;10208457;29;20504;-88
2022/03/07 11:34:59;;;;;;;5.93;1.88;;;;;;;9.72;82.63;102702.47;10209413;29;20106;-88
2022/03/07 11:40:01;;;;;;;5.20;1.20;;;;;;;10.15;85.65;102724.25;10225087;28;20056;-88
2022/03/07 11:45:18;;;;;;;1.40;0.90;;;;;;;9.14;75.62;102663.44;10207339;29;20507;-88
2022/03/07 11:50:20;;;;;;;3.53;0.90;;;;;;;9.54;81.22;102697.50;10209550;29;20127;-88
2022/03/07 11:55:20;;;;;;;3.17;1.20;;;;;;;10.05;79.56;102685.28;10208073;29;20039;-88
2022/03/07 12:00:27;;;;;;;4.07;1.30;;;;;;;10.28;75.84;102651.88;10223539;29;20126;-88
2022/03/07 12:05:29;;;;;;;1.38;1.00;;;;;;;10.07;75.39;102548.31;10208503;29;20062;-88
2022/03/07 12:10:29;;;;;;;1.75;0.95;;;;;;;9.98;70.86;102522.88;10222630;29;20078;-88
2022/03/07 12:15:30;;;;;;;2.08;1.05;;;;;;;10.62;70.54;102584.75;10205986;29;20043;-88
2022/03/07 12:20:30;;;;;;;2.63;1.00;;;;;;;11.42;68.71;102683.88;10223270;29;20106;-88
2022/03/07 12:25:32;;;;;;;3.78;1.30;;;;;;;9.81;68.89;102579.38;10206794;29;20118;-88
2022/03/07 12:30:33;;;;;;;1.65;1.17;;;;;;;10.00;69.61;102619.81;10205470;28;20024;-87
2022/03/07 12:35:33;;;;;;;3.83;1.20;;;;;;;11.83;67.14;102597.13;10191354;29;20054;-88
2022/03/07 12:40:37;;;;;;;3.28;1.38;;;;;;;13.18;62.68;102565.41;10190652;29;20089;-89
2022/03/07 12:45:46;;;;;;;1.50;1.10;;;;;;;13.61;58.94;102517.44;10237777;29;20079;-89
2022/03/07 12:50:47;;;;;;;2.10;1.00;;;;;;;14.38;56.48;102526.91;10238055;29;20054;-89
2022/03/07 12:55:47;;;;;;;2.78;1.60;;;;;;;15.01;56.51;102598.31;10237114;29;20392;-89
2022/03/07 13:00:48;;;;;;;2.58;1.33;;;;;;;15.41;52.10;102616.09;10221593;29;20118;-88
2022/03/07 13:05:59;;;;;;;9.27;2.88;;;;;;;14.14;50.95;102435.47;10205861;29;20035;-88
2022/03/07 13:11:00;;;;;;;7.18;4.85;;;;;;;14.35;50.75;102597.50;10219521;29;20460;-88
2022/03/07 13:16:00;;;;;;;2.58;1.40;;;;;;;14.80;50.18;102571.16;10221228;29;20043;-88
2022/03/07 13:21:01;;;;;;;3.13;1.50;;;;;;;14.73;50.12;102488.97;10205496;29;20023;-89
2022/03/07 13:26:01;;;;;;;3.25;1.15;;;;;;;15.11;46.16;102445.09;10236401;29;20039;-90
2022/03/07 13:31:07;;;;;;;2.15;1.13;;;;;;;16.07;45.76;102536.91;10219279;29;20036;-89
2022/03/07 13:36:11;;;;;;;3.72;0.90;;;;;;;15.70;44.09;102419.84;10205016;29;20027;-89
2022/03/07 13:41:12;;;;;;;4.03;1.05;;;;;;;16.14;44.73;102490.34;10219986;29;20119;-89
2022/03/07 13:46:17;;;;;;;1.52;0.88;;;;;;;16.60;42.99;102506.03;10218959;29;20051;-89
2022/03/07 13:51:17;;;;;;;2.75;1.10;;;;;;;16.63;41.63;102478.59;10205392;29;20484;-89
2022/03/07 13:56:25;;;;;;;1.73;0.85;;;;;;;16.62;41.94;102499.16;10188718;29;20035;-89
2022/03/07 14:01:28;;;;;;;2.65;0.70;;;;;;;16.16;39.88;102448.41;10188127;29;20038;-90
2022/03/07 14:06:29;;;;;;;3.17;0.70;;;;;;;16.55;39.30;102490.97;10184742;29;20030;-89
2022/03/07 14:11:30;;;;;;;2.63;1.50;;;;;;;16.15;38.15;102410.63;10173207;28;20359;-90
2022/03/07 14:16:40;;;;;;;1.48;1.00;;;;;;;16.48;39.15;102436.66;10261614;28;20542;-88
2022/03/07 14:21:41;;;;;;;1.92;0.80;;;;;;;16.62;38.03;102439.91;10204117;29;20027;-89
2022/03/07 14:26:41;;;;;;;1.05;0.70;;;;;;;17.21;36.14;102478.25;10172883;29;20020;-89
2022/03/07 14:31:42;;;;;;;1.27;0.60;;;;;;;16.85;36.94;102436.09;10203744;29;20059;-89
2022/03/07 14:36:44;;;;;;;3.05;0.80;;;;;;;16.52;35.48;102376.69;10164053;29;20484;-89
2022/03/07 14:41:44;;;;;;;1.63;0.70;;;;;;;16.59;35.35;102427.38;10187095;29;20411;-89
2022/03/07 14:46:45;;;;;;;1.42;0.60;;;;;;;16.57;35.45;102412.88;10215879;28;20058;-89
2022/03/07 14:51:45;;;;;;;1.90;1.10;;;;;;;16.39;35.02;102393.72;10198962;29;20036;-89
2022/03/07 14:56:46;;;;;;;1.45;0.70;;;;;;;15.76;34.61;102335.56;10208134;29;20110;-88
2022/03/07 15:01:47;;;;;;;1.48;0.68;;;;;;;16.40;35.21;102448.22;10210325;29;20020;-90
2022/03/07 15:06:50;;;;;;;2.42;0.88;;;;;;;15.42;35.51;102349.44;10226115;29;20042;-89
2022/03/07 15:11:50;;;;;;;1.92;0.70;;;;;;;15.26;36.38;102370.50;10209324;29;20034;-90
2022/03/07 15:16:52;;;;;;;1.15;0.75;;;;;;;15.02;35.88;102383.63;10207822;29;20510;-89
2022/03/07 15:21:53;;;;;;;2.60;0.88;;;;;;;14.23;37.76;102392.47;10194752;29;20023;-88
2022/03/07 15:26:53;;;;;;;1.33;0.80;;;;;;;13.68;37.68;102437.94;10209889;29;20027;-89
2022/03/07 15:31:54;;;;;;;1.10;0.70;;;;;;;13.34;39.70;102502.31;10184312;29;20111;-89
2022/03/07 15:36:54;;;;;;;2.17;0.93;;;;;;;12.15;40.66;102345.94;10203665;29;20031;-89
2022/03/07 15:41:55;;;;;;;1.00;0.90;;;;;;;13.26;39.30;102417.69;10213479;28;20023;-88
2022/03/07 15:46:55;;;;;;;1.67;1.30;;;;;;;12.58;40.08;102375.41;10227679;28;20097;-88
2022/03/07 15:51:57;;;;;;;1.85;1.13;;;;;;;12.17;40.26;102365.03;10207029;28;20483;-88
2022/03/07 15:56:58;;;;;;;2.50;1.20;;;;;;;11.54;42.26;102410.16;10230122;28;20031;-88
2022/03/07 16:01:58;;;;;;;3.65;1.55;;;;;;;10.63;43.34;102371.66;10217434;28;20019;-88
2022/03/07 16:07:02;;;;;;;4.57;1.70;;;;;;;10.55;44.10;102429.72;10222961;28;20039;-88
2022/03/07 16:12:03;;;;;;;3.03;1.50;;;;;;;9.99;47.04;102471.47;10214503;28;20118;-88
2022/03/07 16:17:05;;;;;;;3.40;1.92;;;;;;;8.91;49.26;102488.75;10192791;28;20031;-87
2022/03/07 16:22:06;;;;;;;3.53;2.35;;;;;;;8.09;52.24;102507.59;10199957;29;20032;-88
2022/03/07 16:27:06;;;;;;;3.20;1.88;;;;;;;7.34;55.68;102508.06;10215570;29;20035;-88
2022/03/07 16:32:07;;;;;;;3.85;2.25;;;;;;;6.30;57.53;102428.78;10191591;29;20470;-88
2022/03/07 16:37:07;;;;;;;4.20;2.45;;;;;;;6.84;59.66;102562.59;10223131;29;20046;-88
2022/03/07 16:42:08;;;;;;;4.65;1.88;;;;;;;5.75;61.36;102414.44;10192152;29;20075;-88
2022/03/07 16:47:09;;;;;;;4.05;2.10;;;;;;;5.74;62.17;102446.38;10189845;29;20408;-88
2022/03/07 16:52:11;;;;;;;4.68;2.15;;;;;;;5.71;63.81;102482.28;10190470;29;20027;-88
2022/03/07 16:57:15;;;;;;;3.47;2.20;;;;;;;5.41;65.23;102457.53;10185784;29;20067;-88
2022/03/07 17:02:16;;;;;;;4.68;2.50;;;;;;;4.57;67.32;102361.84;10205607;29;20023;-90
2022/03/07 17:07:17;;;;;;;6.63;3.33;;;;;;;4.90;69.19;102459.91;10200606;29;20390;-87
2022/03/07 17:12:17;;;;;;;5.10;2.40;;;;;;;4.29;72.53;102417.84;10201697;29;20127;-87
2022/03/07 17:17:18;;;;;;;4.00;2.50;;;;;;;4.31;74.84;102460.28;10183945;28;20109;-87
2022/03/07 17:22:19;;;;;;;3.60;2.17;;;;;;;3.90;78.68;102429.50;10184030;29;20020;-87
2022/03/07 17:27:20;;;;;;;8.75;2.60;;;;;;;4.09;80.23;102510.88;10198688;28;20452;-87
2022/03/07 17:32:20;;;;;;;6.95;3.03;;;;;;;3.83;83.78;102522.81;10209194;29;20122;-88
2022/03/07 17:37:21;;;;;;;5.05;3.20;;;;;;;3.64;87.78;102544.94;10189496;29;20051;-87
2022/03/07 17:42:21;;;;;;;8.05;2.75;;;;;;;3.13;90.95;102476.91;10204781;29;20055;-87
2022/03/07 17:47:22;;;;;;;5.68;3.00;;;;;;;3.53;93.67;102602.44;10189101;29;20352;-88
2022/03/07 17:52:22;;;;;;;5.32;3.05;;;;;;;2.47;96.31;102431.44;10220592;29;20039;-87
2022/03/07 17:57:23;;;;;;;6.85;3.45;;;;;;;2.41;98.65;102466.41;10220136;29;20031;-88
2022/03/07 18:02:23;;;;;;;4.88;2.40;;;;;;;2.71;100.00;102547.63;10204215;29;20361;-87
2022/03/07 18:07:24;;;;;;;5.63;2.22;;;;;;;2.19;100.00;102497.72;10204158;29;20067;-87
2022/03/07 18:12:24;;;;;;;3.70;2.13;;;;;;;1.89;100.00;102473.72;10219711;29;20031;-87
2022/03/07 18:17:25;;;;;;;3.17;1.77;;;;;;;2.09;100.00;102537.72;10188902;29;20476;-88
2022/03/07 18:22:25;;;;;;;4.78;2.10;;;;;;;1.67;100.00;102507.63;10204014;29;20024;-87
2022/03/07 18:27:27;;;;;;;3.83;2.40;;;;;;;1.38;100.00;102463.41;10188204;29;20031;-86
2022/03/07 18:32:27;;;;;;;4.82;3.05;;;;;;;1.45;100.00;102492.63;10226484;29;20035;-87
2022/03/07 18:37:28;;;;;;;5.18;3.10;;;;;;;1.45;100.00;102522.50;10227251;29;20122;-87
2022/03/07 18:42:28;;;;;;;4.55;2.80;;;;;;;1.00;100.00;102486.25;10227011;29;20502;-87
2022/03/07 18:47:29;;;;;;;6.28;2.90;;;;;;;0.71;100.00;102462.84;10211455;29;20041;-87
2022/03/07 18:52:29;;;;;;;5.20;2.70;;;;;;;0.33;100.00;102425.91;10196967;28;20046;-88
2022/03/07 18:57:30;;;;;;;5.32;3.15;;;;;;;0.90;100.00;102531.53;10234222;28;20049;-87
2022/03/07 19:02:30;;;;;;;4.13;2.88;;;;;;;0.94;100.00;102551.94;10239427;28;20531;-88
2022/03/07 19:07:31;;;;;;;8.93;3.72;;;;;;;0.86;100.00;102538.25;10222697;28;20432;-88
2022/03/07 19:12:31;;;;;;;5.60;2.90;;;;;;;0.08;100.00;102431.00;10251274;28;20446;-87
2022/03/07 19:17:32;;;;;;;7.22;3.28;;;;;;;0.46;100.00;102526.72;10226343;28;20063;-87
2022/03/07 19:22:32;;;;;;;4.75;3.53;;;;;;;-0.05;100.00;102447.56;10237187;28;20105;-87
2022/03/07 19:27:33;;;;;;;5.40;3.70;;;;;;;-0.16;100.00;102455.84;10265081;28;20382;-88
2022/03/07 19:32:33;;;;;;;5.65;3.17;;;;;;;0.80;100.00;102654.44;10264979;28;20022;-87
2022/03/07 19:37:35;;;;;;;6.40;3.65;;;;;;;-0.10;100.00;102476.94;10248630;28;20023;-88
2022/03/07 19:42:36;;;;;;;5.50;3.42;;;;;;;0.26;100.00;102542.16;10247467;28;20480;-87
2022/03/07 19:47:37;;;;;;;6.30;2.60;;;;;;;-0.39;100.00;102444.50;10249814;28;20111;-87
2022/03/07 19:52:37;;;;;;;6.35;2.33;;;;;;;-0.30;100.00;102488.78;10233594;28;20031;-87
2022/03/07 19:57:38;;;;;;;5.68;3.20;;;;;;;-0.38;100.00;102467.84;10265187;28;20062;-87
2022/03/07 20:02:39;;;;;;;5.22;3.13;;;;;;;-0.49;100.00;102473.41;10265210;28;20251;-87
2022/03/07 20:07:39;;;;;;;5.60;2.80;;;;;;;0.04;100.00;102566.84;10249169;28;20074;-88
2022/03/07 20:12:40;;;;;;;6.15;3.05;;;;;;;-0.64;100.00;102481.94;10246142;28;20049;-87
2022/03/07 20:17:40;;;;;;;7.88;2.95;;;;;;;-0.17;100.00;102540.75;10244858;28;20089;-88
2022/03/07 20:22:41;;;;;;;5.18;2.53;;;;;;;-0.01;100.00;102564.56;10246561;28;20019;-87
2022/03/07 20:27:42;;;;;;;5.78;3.35;;;;;;;0.06;100.00;102600.88;10263487;28;20027;-88
2022/03/07 20:32:42;;;;;;;5.50;3.42;;;;;;;-0.75;100.00;102490.16;10262753;28;20029;-88
2022/03/07 20:37:43;;;;;;;6.70;4.15;;;;;;;-0.18;100.00;102589.66;10262810;28;20110;-87
2022/03/07 20:42:44;;;;;;;5.60;3.08;;;;;;;-0.52;100.00;102535.91;10246516;28;20450;-87
2022/03/07 20:47:46;;;;;;;9.35;3.58;;;;;;;-0.84;100.00;102499.97;10246828;28;20034;-87
2022/03/07 20:52:47;;;;;;;7.18;3.97;;;;;;;-0.57;100.00;102539.03;10262373;28;20027;-87
2022/03/07 20:57:48;;;;;;;6.50;3.60;;;;;;;-0.95;100.00;102504.63;10261988;28;20031;-87
2022/03/07 21:02:48;;;;;;;7.32;4.57;;;;;;;-0.56;100.00;102558.81;10261752;28;20454;-89
2022/03/07 21:07:49;;;;;;;8.35;4.32;;;;;;;-0.67;100.00;102522.78;10245143;28;20035;-88
2022/03/07 21:12:49;;;;;;;9.23;4.93;;;;;;;-0.65;100.00;102499.16;10222775;28;20051;-88
2022/03/07 21:17:50;;;;;;;10.82;5.13;;;;;;;-0.56;100.00;102518.22;10233792;28;20357;-88
2022/03/07 21:22:50;;;;;;;8.63;4.85;;;;;;;-0.31;100.00;102555.59;10211702;28;20053;-87
2022/03/07 21:27:51;;;;;;;6.50;3.95;;;;;;;-0.77;100.00;102484.03;10234714;28;20614;-87
2022/03/07 21:32:51;;;;;;;6.93;3.75;;;;;;;-0.06;100.00;102591.22;10222597;28;20077;-88
2022/03/07 21:37:54;;;;;;;8.93;4.15;;;;;;;-0.48;100.00;102511.13;10246421;28;20058;-88
2022/03/07 21:42:54;;;;;;;7.10;3.67;;;;;;;-0.17;100.00;102556.16;10231171;28;20487;-86
2022/03/07 21:47:55;;;;;;;6.32;3.40;;;;;;;-0.50;100.00;102493.31;10227603;28;20034;-87
2022/03/07 21:52:55;;;;;;;6.68;3.90;;;;;;;-0.51;100.00;102515.97;10222018;28;20047;-87
2022/03/07 21:57:56;;;;;;;8.02;3.80;;;;;;;-0.06;100.00;102602.06;10204425;28;20119;-87
2022/03/07 22:02:57;;;;;;;8.80;4.43;;;;;;;-0.47;100.00;102552.56;10220132;28;20353;-89
2022/03/07 22:07:57;;;;;;;8.75;4.45;;;;;;;-0.53;100.00;102555.84;10228176;28;20031;-87
2022/03/07 22:12:58;;;;;;;6.47;4.00;;;;;;;-0.54;100.00;102554.13;10252752;28;20023;-86
2022/03/07 22:17:58;;;;;;;8.35;4.32;;;;;;;-1.13;100.00;102453.94;10258092;28;20027;-87
2022/03/07 22:22:59;;;;;;;7.72;4.10;;;;;;;-0.44;100.00;102609.94;10239433;28;20162;-87
2022/03/07 22:28:00;;;;;;;7.18;4.13;;;;;;;-1.05;100.00;102513.59;10252458;28;20483;-87
2022/03/07 22:33:00;;;;;;;9.63;4.80;;;;;;;-0.31;100.00;102619.66;10249827;28;20026;-87
2022/03/07 22:38:01;;;;;;;5.65;4.07;;;;;;;-0.89;100.00;102529.28;10241636;28;20114;-87
2022/03/07 22:43:01;;;;;;;9.13;4.35;;;;;;;-0.43;100.00;102606.25;10233960;28;20039;-88